createdAt,value
2018-11-06T00:00:48.947Z,9.50
2018-11-06T00:05:52.797Z,9.50
2018-11-06T00:10:56.393Z,9.50
2018-11-06T00:16:00.013Z,9.50
2018-11-06T00:21:04.716Z,9.50
2018-11-06T00:26:09.140Z,9.70
2018-11-06T00:31:13.052Z,9.70
2018-11-06T00:36:16.784Z,9.60
2018-11-06T00:41:20.427Z,9.60
2018-11-06T00:46:24.098Z,9.50
2018-11-06T00:51:27.771Z,9.50
2018-11-06T00:56:32.643Z,9.50
2018-11-06T01:01:36.332Z,9.50
2018-11-06T01:06:40.209Z,9.50
2018-11-06T01:11:44.377Z,9.50
2018-11-06T01:16:48.323Z,9.40
2018-11-06T01:21:52.010Z,9.40
2018-11-06T01:26:56.185Z,9.40
2018-11-06T01:31:59.919Z,9.30
2018-11-06T01:37:03.754Z,9.30
2018-11-06T01:42:07.614Z,9.30
2018-11-06T01:47:12.087Z,9.30
2018-11-06T01:52:15.762Z,9.30
2018-11-06T01:57:20.835Z,9.20
2018-11-06T02:02:24.563Z,9.20
2018-11-06T02:07:28.402Z,9.20
2018-11-06T02:12:32.062Z,9.20
2018-11-06T02:17:36.358Z,9.20
2018-11-06T02:22:41.594Z,9.20
2018-11-06T02:27:45.300Z,9.10
2018-11-06T02:32:49.011Z,9.10
2018-11-06T02:37:52.921Z,9.10
2018-11-06T02:42:56.597Z,9.20
2018-11-06T02:48:00.371Z,9.10
2018-11-06T02:53:04.293Z,8.90
2018-11-06T02:58:08.009Z,8.80
2018-11-06T03:03:13.176Z,8.80
2018-11-06T03:08:18.268Z,8.80
2018-11-06T03:13:22.004Z,8.60
2018-11-06T03:18:25.931Z,8.80
2018-11-06T03:23:29.597Z,8.90
2018-11-06T03:28:33.295Z,8.80
2018-11-06T03:33:37.295Z,8.70
2018-11-06T03:38:40.993Z,8.70
2018-11-06T03:43:44.568Z,8.70
2018-11-06T03:48:48.156Z,8.70
2018-11-06T03:53:52.200Z,8.70
2018-11-06T03:58:59.131Z,8.70
2018-11-06T04:04:05.639Z,8.80
2018-11-06T04:09:13.743Z,8.90
2018-11-06T04:14:17.361Z,8.90
2018-11-06T04:19:20.908Z,8.80
2018-11-06T04:24:24.500Z,8.80
2018-11-06T04:29:28.099Z,8.70
2018-11-06T04:34:31.683Z,8.70
2018-11-06T04:39:35.358Z,8.60
2018-11-06T04:44:38.979Z,8.60
2018-11-06T04:49:42.582Z,8.60
2018-11-06T04:54:46.228Z,8.60
2018-11-06T04:59:49.812Z,8.60
2018-11-06T05:04:53.416Z,8.50
2018-11-06T05:09:57.830Z,8.40
2018-11-06T05:15:01.697Z,8.40
2018-11-06T05:20:10.423Z,8.40
2018-11-06T05:25:14.222Z,8.30
2018-11-06T05:30:17.800Z,8.20
2018-11-06T05:35:21.747Z,8.20
2018-11-06T05:40:37.246Z,8.40
2018-11-06T05:45:40.889Z,8.40
2018-11-06T05:50:45.098Z,8.40
2018-11-06T05:55:49.052Z,8.30
2018-11-06T06:00:53.570Z,8.30
2018-11-06T06:05:57.915Z,8.20
2018-11-06T06:11:01.606Z,8.20
2018-11-06T06:16:05.499Z,8.20
2018-11-06T06:21:09.576Z,8.20
2018-11-06T06:26:13.848Z,8.20
2018-11-06T06:31:17.556Z,8.20
2018-11-06T06:36:21.191Z,8.30
2018-11-06T06:41:24.793Z,8.50
2018-11-06T06:46:29.195Z,8.50
2018-11-06T06:51:32.867Z,8.60
2018-11-06T06:56:36.620Z,8.40
2018-11-06T07:01:40.269Z,8.60
2018-11-06T07:06:44.000Z,8.70
2018-11-06T07:11:47.703Z,8.80
2018-11-06T07:16:51.480Z,8.90
2018-11-06T07:21:55.195Z,8.90
2018-11-06T07:32:10.959Z,8.90
2018-11-06T07:37:14.516Z,9.10
2018-11-06T07:42:18.095Z,9.10
2018-11-06T07:47:22.072Z,9.20
2018-11-06T07:52:25.687Z,9.30
2018-11-06T07:57:29.277Z,9.40
2018-11-06T08:02:32.855Z,9.40
2018-11-06T08:07:36.558Z,9.60
2018-11-06T08:12:41.797Z,9.80
2018-11-06T08:17:46.184Z,9.90
2018-11-06T08:22:50.556Z,9.90
2018-11-06T08:27:55.955Z,10.00
2018-11-06T08:33:00.185Z,10.10
2018-11-06T08:38:04.092Z,10.30
2018-11-06T08:43:07.742Z,10.50
2018-11-06T08:48:12.077Z,10.60
2018-11-06T08:53:16.340Z,10.80
2018-11-06T08:58:22.281Z,10.90
2018-11-06T09:03:26.200Z,10.50
2018-11-06T09:08:30.107Z,10.60
2018-11-06T09:13:35.010Z,11.00
2018-11-06T09:18:38.691Z,11.00
2018-11-06T09:23:42.331Z,11.30
2018-11-06T09:28:47.218Z,11.30
2018-11-06T09:33:51.447Z,11.20
2018-11-06T09:38:55.095Z,11.10
2018-11-06T09:43:58.837Z,11.20
2018-11-06T09:49:02.626Z,11.40
2018-11-06T09:54:06.925Z,11.30
2018-11-06T09:59:10.567Z,11.50
2018-11-06T10:04:14.232Z,11.50
2018-11-06T10:09:17.947Z,11.80
2018-11-06T10:14:21.500Z,12.10
2018-11-06T10:19:25.186Z,12.20
2018-11-06T10:24:30.638Z,12.20
2018-11-06T10:29:34.355Z,12.10
2018-11-06T10:34:37.941Z,12.10
2018-11-06T10:39:41.897Z,12.10
2018-11-06T10:44:45.500Z,12.40
2018-11-06T10:49:49.078Z,12.60
2018-11-06T10:54:53.540Z,13.00
2018-11-06T10:59:57.535Z,13.10
2018-11-06T11:05:01.121Z,13.10
2018-11-06T11:10:04.977Z,13.10
2018-11-06T11:15:08.580Z,13.60
2018-11-06T11:20:13.579Z,13.60
2018-11-06T11:25:17.389Z,13.70
2018-11-06T11:30:21.066Z,13.80
2018-11-06T11:35:24.682Z,13.70
2018-11-06T11:40:28.503Z,13.70
2018-11-06T11:45:32.172Z,13.90
2018-11-06T11:50:35.768Z,14.00
2018-11-06T11:55:40.091Z,13.70
2018-11-06T12:00:43.763Z,14.10
2018-11-06T12:05:47.518Z,14.40
2018-11-06T12:10:51.132Z,14.40
2018-11-06T12:15:54.962Z,14.50
2018-11-06T12:20:58.658Z,14.30
2018-11-06T12:26:02.312Z,14.40
2018-11-06T12:31:06.087Z,14.50
2018-11-06T12:36:09.745Z,14.70
2018-11-06T12:41:13.677Z,14.60
2018-11-06T12:46:17.322Z,14.50
2018-11-06T12:51:20.921Z,14.60
2018-11-06T12:56:24.636Z,14.70
2018-11-06T13:01:28.281Z,14.80
2018-11-06T13:06:31.926Z,14.90
2018-11-06T13:11:35.623Z,15.10
2018-11-06T13:16:39.719Z,14.90
2018-11-06T13:21:45.607Z,15.10
2018-11-06T13:26:49.244Z,15.10
2018-11-06T13:31:52.881Z,15.10
2018-11-06T13:36:56.730Z,15.10
2018-11-06T13:42:01.063Z,15.00
2018-11-06T13:47:04.960Z,15.00
2018-11-06T13:52:10.288Z,15.10
2018-11-06T13:57:13.844Z,15.00
2018-11-06T14:02:17.516Z,15.00
2018-11-06T14:07:24.420Z,15.10
2018-11-06T14:12:28.667Z,15.00
2018-11-06T14:17:32.401Z,15.20
2018-11-06T14:22:40.052Z,14.90
2018-11-06T14:27:43.696Z,15.00
2018-11-06T14:32:48.297Z,14.80
2018-11-06T14:37:52.206Z,14.80
2018-11-06T14:42:56.185Z,14.60
2018-11-06T14:47:59.834Z,14.40
2018-11-06T14:53:03.829Z,14.40
2018-11-06T14:58:07.613Z,14.50
2018-11-06T15:03:13.212Z,14.00
2018-11-06T15:08:16.813Z,13.60
2018-11-06T15:13:20.495Z,13.30
2018-11-06T15:18:24.361Z,13.20
2018-11-06T15:23:34.551Z,13.70
2018-11-06T15:28:38.254Z,14.40
2018-11-06T15:33:42.226Z,14.60
2018-11-06T15:38:46.126Z,14.10
2018-11-06T15:43:49.767Z,13.80
2018-11-06T15:48:56.415Z,14.00
2018-11-06T15:54:00.694Z,14.00
2018-11-06T15:59:04.397Z,13.90
2018-11-06T16:04:08.786Z,13.80
2018-11-06T16:09:12.365Z,13.90
2018-11-06T16:14:15.971Z,13.90
2018-11-06T16:19:19.560Z,14.00
2018-11-06T16:24:24.827Z,13.90
2018-11-06T16:29:28.518Z,13.80
2018-11-06T16:34:34.356Z,13.70
2018-11-06T16:39:38.098Z,13.70
2018-11-06T16:44:41.679Z,13.70
2018-11-06T16:54:55.054Z,13.80
2018-11-06T16:59:58.818Z,14.00
2018-11-06T17:05:05.431Z,14.10
2018-11-06T17:10:11.293Z,14.30
2018-11-06T17:15:16.741Z,14.40
2018-11-06T17:20:21.196Z,14.30
2018-11-06T17:25:24.873Z,14.30
2018-11-06T17:30:28.799Z,14.10
2018-11-06T17:35:33.663Z,14.00
2018-11-06T17:40:37.239Z,14.10
2018-11-06T17:45:40.830Z,14.40
2018-11-06T17:50:44.380Z,14.60
2018-11-06T17:55:47.960Z,14.60
2018-11-06T18:00:51.563Z,14.60
2018-11-06T18:05:55.663Z,14.40
2018-11-06T18:10:59.249Z,14.20
2018-11-06T18:16:03.533Z,14.00
2018-11-06T18:21:09.222Z,13.80
2018-11-06T18:26:12.770Z,13.50
2018-11-06T18:31:16.787Z,13.40
2018-11-06T18:36:20.615Z,13.40
2018-11-06T18:41:24.528Z,13.40
2018-11-06T18:46:28.111Z,13.60
2018-11-06T18:51:32.343Z,13.80
2018-11-06T18:56:36.170Z,14.10
2018-11-06T19:01:39.728Z,13.80
2018-11-06T19:06:44.962Z,13.70
2018-11-06T19:11:48.537Z,13.70
2018-11-06T19:16:52.536Z,13.70
2018-11-06T19:21:56.136Z,13.80
2018-11-06T19:26:59.703Z,14.00
2018-11-06T19:32:03.287Z,14.10
2018-11-06T19:37:07.017Z,14.10
2018-11-06T19:42:10.617Z,14.20
2018-11-06T19:47:14.456Z,14.20
2018-11-06T19:52:18.113Z,14.20
2018-11-06T19:57:21.876Z,14.00
2018-11-06T20:02:26.899Z,14.00
2018-11-06T20:07:30.470Z,14.00
2018-11-06T20:12:34.203Z,13.90
2018-11-06T20:17:40.395Z,13.80
2018-11-06T20:22:44.213Z,13.50
2018-11-06T20:27:48.019Z,13.20
2018-11-06T20:32:51.668Z,13.30
2018-11-06T20:37:55.610Z,13.30
2018-11-06T20:42:59.749Z,13.30
2018-11-06T20:48:03.769Z,13.30
2018-11-06T20:53:07.428Z,13.30
2018-11-06T20:58:11.001Z,13.20
2018-11-06T21:03:15.999Z,13.20
2018-11-06T21:08:20.008Z,13.20
2018-11-06T21:13:23.778Z,13.10
2018-11-06T21:18:27.673Z,12.90
2018-11-06T21:23:31.181Z,12.80
2018-11-06T21:28:34.809Z,12.60
2018-11-06T21:33:38.494Z,12.40
2018-11-06T21:38:42.033Z,12.40
2018-11-06T21:43:45.734Z,12.10
2018-11-06T21:48:49.532Z,12.10
2018-11-06T21:53:53.098Z,12.00
2018-11-06T21:58:56.726Z,11.90
2018-11-06T22:04:00.652Z,11.80
2018-11-06T22:09:05.160Z,11.70
2018-11-06T22:14:09.129Z,11.60
2018-11-06T22:19:13.379Z,11.60
2018-11-06T22:24:16.996Z,11.50
2018-11-06T22:29:20.935Z,11.50
2018-11-06T22:39:35.840Z,11.30
2018-11-06T22:44:42.598Z,11.20
2018-11-06T22:49:46.203Z,11.00
2018-11-06T22:54:50.083Z,11.00
2018-11-06T22:59:53.692Z,10.90
2018-11-06T23:04:57.263Z,10.80
2018-11-06T23:10:02.322Z,10.80
2018-11-06T23:15:06.780Z,10.70
2018-11-06T23:20:10.986Z,10.60
2018-11-06T23:25:15.461Z,10.60
2018-11-06T23:30:21.683Z,10.50
2018-11-06T23:35:25.374Z,10.60
2018-11-06T23:40:29.575Z,10.60
2018-11-06T23:45:34.025Z,10.60
2018-11-06T23:50:37.629Z,10.40
2018-11-06T23:55:41.242Z,10.50
